Silver Beach, Massachusetts
Current Conditions -  °F | °C
As of 1:35 PM on Sunday 21 Dec 2014 (Local Time) from KFMH Reporting Station
Broken Clouds Broken Clouds  
Wind Chill: 37°   Ceiling: 5000
Heat Index: 43°   Visibility: 10mi
Dew Point: 32°   Wind: 10mph
Humidity: 66%   Direction: 50°NE
Pressure: 30.24"   Gusts: NA
Location:  41.64°N, 70.63°W
Report Text: KFMH 211835Z AUTO 05009KT 10SM BKN050 06/00 A3024 RMK AO2
Loading
Personal Weather Stations






























Interactive Weather Map New forecast layout! Learn more

10-Day Weather Forecast

Advertisements
Track Severe Weather on mobile